Time;durP1;ratioP1;P1;durP2;ratioP2;P2;SDS_P1;SDS_P2;PMS_P1;PMS_P2;Temp;Humidity;BMP_temperature;BMP_pressure;BME280_temperature;BME280_humidity;BME280_pressure;Samples;Min_cycle;Max_cycle;Signal;HPM_P1;HPM_P2
2022/05/17 00:02:10;;;;;;;23.70;9.45;;;;;;;;;;5085880;28;20097;-63
2022/05/17 00:04:36;;;;;;;17.70;10.25;;;;;;;;;;5086132;28;20040;-64
2022/05/17 00:07:03;;;;;;;19.20;8.85;;;;;;;;;;5083979;28;20059;-64
2022/05/17 00:09:29;;;;;;;22.33;8.52;;;;;;;;;;5086591;27;20044;-64
2022/05/17 00:11:59;;;;;;;16.88;10.07;;;;;;;;;;5098192;28;20316;-64
2022/05/17 00:14:26;;;;;;;15.98;8.13;;;;;;;;;;5089223;27;20036;-64
2022/05/17 00:16:52;;;;;;;24.35;9.48;;;;;;;;;;5088288;28;20430;-63
2022/05/17 00:19:20;;;;;;;35.10;10.50;;;;;;;;;;5086042;28;20102;-64
2022/05/17 00:21:46;;;;;;;18.55;8.98;;;;;;;;;;5084020;27;20050;-64
2022/05/17 00:24:13;;;;;;;24.95;9.27;;;;;;;;;;5083871;28;20251;-65
2022/05/17 00:26:39;;;;;;;21.85;8.45;;;;;;;;;;5085978;28;20552;-64
2022/05/17 00:29:06;;;;;;;17.02;8.55;;;;;;;;;;5091166;27;20028;-64
2022/05/17 00:31:34;;;;;;;17.10;9.07;;;;;;;;;;5094005;27;20035;-64
2022/05/17 00:34:02;;;;;;;16.20;8.57;;;;;;;;;;5089796;28;20043;-64
2022/05/17 00:36:29;;;;;;;17.77;9.43;;;;;;;;;;5084856;28;20056;-64
2022/05/17 00:38:55;;;;;;;13.05;7.55;;;;;;;;;;5085248;27;20593;-64
2022/05/17 00:41:21;;;;;;;17.75;8.60;;;;;;;;;;5085226;27;20042;-64
2022/05/17 00:46:33;;;;;;;25.25;9.93;;;;;;;;;;5096512;28;20164;-64
2022/05/17 00:48:59;;;;;;;18.33;8.30;;;;;;;;;;5084162;28;20035;-64
2022/05/17 00:51:27;;;;;;;23.95;10.57;;;;;;;;;;5084002;27;20625;-65
2022/05/17 00:53:55;;;;;;;14.38;7.97;;;;;;;;;;5088573;28;20084;-64
2022/05/17 00:56:22;;;;;;;20.63;8.55;;;;;;;;;;5094752;28;20398;-64
2022/05/17 00:58:53;;;;;;;17.23;8.95;;;;;;;;;;5089812;28;20087;-64
2022/05/17 01:01:21;;;;;;;14.73;8.20;;;;;;;;;;5086218;28;20043;-64
2022/05/17 01:03:53;;;;;;;17.23;9.32;;;;;;;;;;5087330;28;20044;-64
2022/05/17 01:06:19;;;;;;;15.70;8.60;;;;;;;;;;5083902;28;20178;-64
2022/05/17 01:08:45;;;;;;;24.13;8.10;;;;;;;;;;5085209;28;20525;-64
2022/05/17 01:11:12;;;;;;;16.55;8.65;;;;;;;;;;5085015;28;20048;-64
2022/05/17 01:16:24;;;;;;;15.25;7.82;;;;;;;;;;5089469;28;20044;-64
2022/05/17 01:18:50;;;;;;;16.50;7.43;;;;;;;;;;5091868;27;20048;-64
2022/05/17 01:21:16;;;;;;;21.80;9.35;;;;;;;;;;5082368;28;20040;-64
2022/05/17 01:23:43;;;;;;;15.65;8.38;;;;;;;;;;5098547;28;20118;-64
2022/05/17 01:26:11;;;;;;;15.30;8.30;;;;;;;;;;5083752;28;20324;-64
2022/05/17 01:28:37;;;;;;;20.92;9.82;;;;;;;;;;5085709;28;20512;-64
2022/05/17 01:31:04;;;;;;;18.27;7.68;;;;;;;;;;5082703;28;20469;-64
2022/05/17 01:33:32;;;;;;;17.30;9.23;;;;;;;;;;5084021;28;20047;-64
2022/05/17 01:35:58;;;;;;;16.92;8.23;;;;;;;;;;5094103;28;20044;-64
2022/05/17 01:38:25;;;;;;;18.00;8.25;;;;;;;;;;5082247;28;20071;-64
2022/05/17 01:40:51;;;;;;;20.58;9.05;;;;;;;;;;5087059;28;20040;-65
2022/05/17 01:43:17;;;;;;;30.00;9.02;;;;;;;;;;5085048;28;20398;-64
2022/05/17 01:45:43;;;;;;;17.23;9.18;;;;;;;;;;5082547;28;20377;-64
2022/05/17 01:48:09;;;;;;;22.27;9.70;;;;;;;;;;5089864;28;20040;-65
2022/05/17 01:50:36;;;;;;;18.17;8.73;;;;;;;;;;5087159;28;20027;-65
2022/05/17 01:53:04;;;;;;;16.85;9.02;;;;;;;;;;5083713;28;20144;-65
2022/05/17 01:55:31;;;;;;;22.48;9.10;;;;;;;;;;5081712;28;20036;-64
2022/05/17 01:57:57;;;;;;;17.83;8.38;;;;;;;;;;5086115;28;20516;-65
2022/05/17 02:00:24;;;;;;;17.30;8.95;;;;;;;;;;5087213;28;20131;-65
2022/05/17 02:02:50;;;;;;;17.17;7.93;;;;;;;;;;5090105;28;20532;-65
2022/05/17 02:05:17;;;;;;;17.15;9.00;;;;;;;;;;5087697;27;20194;-65
2022/05/17 02:07:43;;;;;;;18.63;8.55;;;;;;;;;;5094415;28;20079;-65
2022/05/17 02:10:10;;;;;;;18.33;9.25;;;;;;;;;;5086871;28;20036;-65
2022/05/17 02:12:36;;;;;;;18.88;9.07;;;;;;;;;;5087064;27;20071;-65
2022/05/17 02:15:04;;;;;;;23.23;9.73;;;;;;;;;;5088611;28;20100;-65
2022/05/17 02:17:30;;;;;;;24.20;9.50;;;;;;;;;;5097605;28;20040;-66
2022/05/17 02:19:56;;;;;;;16.05;9.45;;;;;;;;;;5095934;27;20473;-64
2022/05/17 02:22:22;;;;;;;17.63;8.65;;;;;;;;;;5084249;27;20047;-65
2022/05/17 02:24:48;;;;;;;14.60;8.85;;;;;;;;;;5087410;28;20552;-65
2022/05/17 02:27:14;;;;;;;22.60;8.65;;;;;;;;;;5096769;27;20047;-65
2022/05/17 02:29:40;;;;;;;16.52;8.88;;;;;;;;;;5085167;28;20151;-65
2022/05/17 02:32:08;;;;;;;25.55;9.70;;;;;;;;;;5086707;27;20032;-65
2022/05/17 02:34:36;;;;;;;19.08;9.43;;;;;;;;;;5086637;27;20276;-66
2022/05/17 02:37:03;;;;;;;19.13;10.23;;;;;;;;;;5095985;28;20048;-65
2022/05/17 02:39:29;;;;;;;15.90;9.00;;;;;;;;;;5089872;27;20044;-65
2022/05/17 02:41:55;;;;;;;15.25;8.98;;;;;;;;;;5085997;28;20048;-65
2022/05/17 02:44:21;;;;;;;19.15;8.50;;;;;;;;;;5085253;27;21693;-65
2022/05/17 02:46:47;;;;;;;13.98;9.45;;;;;;;;;;5085293;27;20055;-65
2022/05/17 02:49:13;;;;;;;21.20;10.20;;;;;;;;;;5089467;28;20177;-66
2022/05/17 02:51:40;;;;;;;20.88;9.07;;;;;;;;;;5085723;27;20431;-65
2022/05/17 02:54:07;;;;;;;20.23;9.10;;;;;;;;;;5085266;28;20086;-65
2022/05/17 02:56:33;;;;;;;16.30;9.00;;;;;;;;;;5088647;27;20047;-65
2022/05/17 02:59:00;;;;;;;18.08;9.50;;;;;;;;;;5094849;28;20082;-65
2022/05/17 03:01:26;;;;;;;17.73;8.68;;;;;;;;;;5097352;28;20151;-65
2022/05/17 03:03:52;;;;;;;17.65;8.93;;;;;;;;;;5087261;28;20040;-65
2022/05/17 03:06:18;;;;;;;19.98;10.13;;;;;;;;;;5090280;27;20036;-65
2022/05/17 03:08:44;;;;;;;18.05;9.40;;;;;;;;;;5086759;27;20036;-65
2022/05/17 03:11:11;;;;;;;17.52;8.38;;;;;;;;;;5102032;27;20036;-65
2022/05/17 03:13:37;;;;;;;13.13;8.30;;;;;;;;;;5089636;28;20036;-65
2022/05/17 03:16:04;;;;;;;19.33;8.02;;;;;;;;;;5089249;28;20401;-65
2022/05/17 03:18:30;;;;;;;22.63;9.88;;;;;;;;;;5088738;27;20831;-65
2022/05/17 03:20:57;;;;;;;16.65;8.00;;;;;;;;;;5091895;28;20131;-65
2022/05/17 03:23:23;;;;;;;15.82;8.32;;;;;;;;;;5090207;27;20032;-65
2022/05/17 03:25:49;;;;;;;18.65;8.23;;;;;;;;;;5088798;27;20043;-65
2022/05/17 03:28:15;;;;;;;15.15;8.10;;;;;;;;;;5097308;27;20079;-65
2022/05/17 03:30:42;;;;;;;14.73;7.53;;;;;;;;;;5095003;28;20036;-65
2022/05/17 03:33:09;;;;;;;16.52;8.27;;;;;;;;;;5090911;27;20063;-65
2022/05/17 03:35:35;;;;;;;17.42;7.97;;;;;;;;;;5091846;28;20490;-65
2022/05/17 03:38:01;;;;;;;15.23;7.35;;;;;;;;;;5099611;27;20047;-65
2022/05/17 03:40:27;;;;;;;13.98;7.95;;;;;;;;;;5095853;28;20090;-65
2022/05/17 03:42:53;;;;;;;15.20;7.65;;;;;;;;;;5089559;28;20059;-65
2022/05/17 03:45:20;;;;;;;10.98;6.90;;;;;;;;;;5090512;27;20043;-65
2022/05/17 03:47:46;;;;;;;18.65;7.72;;;;;;;;;;5094902;27;20092;-65
2022/05/17 03:50:13;;;;;;;14.02;8.57;;;;;;;;;;5093025;28;20068;-65
2022/05/17 03:52:39;;;;;;;15.05;7.85;;;;;;;;;;5094810;28;20059;-65
2022/05/17 03:55:06;;;;;;;16.80;7.85;;;;;;;;;;5096231;27;20036;-65
2022/05/17 03:57:33;;;;;;;15.10;8.60;;;;;;;;;;5096306;27;20039;-65
2022/05/17 03:59:59;;;;;;;19.30;8.13;;;;;;;;;;5095919;28;20050;-65
2022/05/17 04:02:26;;;;;;;16.90;8.15;;;;;;;;;;5092836;27;20320;-65
2022/05/17 04:04:53;;;;;;;15.00;8.10;;;;;;;;;;5103250;27;20043;-65
2022/05/17 04:07:19;;;;;;;16.70;7.57;;;;;;;;;;5082446;28;20397;-65
2022/05/17 04:09:45;;;;;;;17.20;8.18;;;;;;;;;;5095542;28;20043;-65
2022/05/17 04:12:11;;;;;;;12.02;6.80;;;;;;;;;;5097452;27;20042;-64
2022/05/17 04:14:38;;;;;;;15.10;7.95;;;;;;;;;;5090020;27;20051;-65
2022/05/17 04:17:05;;;;;;;13.10;7.63;;;;;;;;;;5086287;27;20040;-65
2022/05/17 04:19:33;;;;;;;15.45;7.03;;;;;;;;;;5095258;28;20047;-64
2022/05/17 04:21:59;;;;;;;12.57;7.18;;;;;;;;;;5084532;27;20048;-64
2022/05/17 04:24:26;;;;;;;15.23;7.05;;;;;;;;;;5085824;28;20131;-65
2022/05/17 04:26:53;;;;;;;14.80;6.82;;;;;;;;;;5085101;28;20067;-64
2022/05/17 04:29:19;;;;;;;16.45;7.97;;;;;;;;;;5085573;28;20051;-65
2022/05/17 04:31:46;;;;;;;18.10;7.13;;;;;;;;;;5087986;27;20043;-64
2022/05/17 04:34:13;;;;;;;16.25;6.90;;;;;;;;;;5085982;27;20036;-65
2022/05/17 04:36:40;;;;;;;12.85;6.13;;;;;;;;;;5082687;27;20047;-65
2022/05/17 04:39:06;;;;;;;11.13;6.57;;;;;;;;;;5084663;28;20129;-64
2022/05/17 04:41:32;;;;;;;16.17;7.70;;;;;;;;;;5089026;28;20197;-64
2022/05/17 04:43:59;;;;;;;12.15;6.28;;;;;;;;;;5084138;27;20727;-65
2022/05/17 04:46:25;;;;;;;12.18;6.18;;;;;;;;;;5081233;28;20082;-64
2022/05/17 04:48:51;;;;;;;17.67;8.07;;;;;;;;;;5082884;28;20063;-65
2022/05/17 04:51:18;;;;;;;15.48;7.15;;;;;;;;;;5080881;28;20048;-64
2022/05/17 04:53:44;;;;;;;16.13;6.35;;;;;;;;;;5082443;27;20437;-65
2022/05/17 04:56:11;;;;;;;23.75;6.97;;;;;;;;;;5083950;27;20046;-65
2022/05/17 04:58:38;;;;;;;14.60;6.85;;;;;;;;;;5089552;27;20069;-65
2022/05/17 05:01:04;;;;;;;20.85;7.82;;;;;;;;;;5088031;28;20050;-64
2022/05/17 05:03:31;;;;;;;11.57;6.95;;;;;;;;;;5081821;27;20564;-65
2022/05/17 05:05:57;;;;;;;17.45;8.07;;;;;;;;;;5084839;28;20031;-64
2022/05/17 05:08:24;;;;;;;13.60;6.75;;;;;;;;;;5089775;28;20508;-65
2022/05/17 05:10:50;;;;;;;11.93;6.00;;;;;;;;;;5088500;28;20533;-65
2022/05/17 05:13:20;;;;;;;14.60;6.15;;;;;;;;;;5094591;28;20442;-65
2022/05/17 05:15:47;;;;;;;18.23;8.20;;;;;;;;;;5088477;28;20154;-65
2022/05/17 05:18:14;;;;;;;12.77;5.82;;;;;;;;;;5082902;28;20519;-64
2022/05/17 05:20:40;;;;;;;15.30;6.75;;;;;;;;;;5085486;28;20398;-65
2022/05/17 05:23:07;;;;;;;18.10;7.43;;;;;;;;;;5088143;28;20152;-65
2022/05/17 05:25:33;;;;;;;13.55;7.18;;;;;;;;;;5088021;28;20039;-65
2022/05/17 05:28:01;;;;;;;9.85;6.07;;;;;;;;;;5089399;28;20371;-65
2022/05/17 05:30:29;;;;;;;13.65;6.55;;;;;;;;;;5093539;28;20043;-65
2022/05/17 05:32:55;;;;;;;16.30;6.50;;;;;;;;;;5086182;27;20578;-65
2022/05/17 05:35:22;;;;;;;15.68;8.20;;;;;;;;;;5086529;28;20538;-65
2022/05/17 05:37:48;;;;;;;17.05;6.68;;;;;;;;;;5085273;28;20040;-65
2022/05/17 05:40:14;;;;;;;16.02;6.22;;;;;;;;;;5084986;28;20123;-65
2022/05/17 05:42:41;;;;;;;16.63;6.93;;;;;;;;;;5087674;28;20344;-65
2022/05/17 05:45:08;;;;;;;15.05;6.90;;;;;;;;;;5084419;28;20566;-64
2022/05/17 05:47:34;;;;;;;17.38;7.30;;;;;;;;;;5082823;28;20051;-65
2022/05/17 05:50:00;;;;;;;17.27;7.32;;;;;;;;;;5087220;28;20047;-65
2022/05/17 05:52:27;;;;;;;13.45;6.65;;;;;;;;;;5087144;28;20131;-64
2022/05/17 05:54:54;;;;;;;20.85;6.65;;;;;;;;;;5084298;28;20477;-65
2022/05/17 05:57:20;;;;;;;14.93;7.22;;;;;;;;;;5082267;28;20044;-64
2022/05/17 05:59:46;;;;;;;14.23;6.80;;;;;;;;;;5083837;28;20051;-65
2022/05/17 06:02:13;;;;;;;15.68;6.70;;;;;;;;;;5084053;28;20112;-65
2022/05/17 06:04:39;;;;;;;16.45;6.35;;;;;;;;;;5087618;28;20105;-65
2022/05/17 06:07:05;;;;;;;23.90;9.32;;;;;;;;;;5085573;28;20044;-65
2022/05/17 06:09:32;;;;;;;12.52;6.97;;;;;;;;;;5083028;28;20478;-65
2022/05/17 06:11:58;;;;;;;13.98;7.05;;;;;;;;;;5084781;28;20036;-65
2022/05/17 06:14:24;;;;;;;17.13;7.60;;;;;;;;;;5085794;28;20584;-65
2022/05/17 06:16:51;;;;;;;26.83;8.70;;;;;;;;;;5085101;28;20091;-65
2022/05/17 06:19:17;;;;;;;17.02;8.15;;;;;;;;;;5090816;28;20412;-65
2022/05/17 06:21:44;;;;;;;17.15;9.27;;;;;;;;;;5091431;28;20055;-65
2022/05/17 06:24:10;;;;;;;23.30;7.35;;;;;;;;;;5093177;28;20043;-65
2022/05/17 06:26:36;;;;;;;14.02;7.65;;;;;;;;;;5096638;28;20162;-65
2022/05/17 06:29:03;;;;;;;14.32;8.40;;;;;;;;;;5100963;28;20050;-65
2022/05/17 06:31:30;;;;;;;20.38;7.50;;;;;;;;;;5092984;28;20044;-65
2022/05/17 06:33:56;;;;;;;18.05;7.10;;;;;;;;;;5091195;28;20039;-65
2022/05/17 06:36:23;;;;;;;14.50;7.03;;;;;;;;;;5093873;28;20055;-65
2022/05/17 06:38:49;;;;;;;16.42;7.18;;;;;;;;;;5090103;28;20047;-65
2022/05/17 06:41:15;;;;;;;21.45;8.77;;;;;;;;;;5084135;28;20040;-65
2022/05/17 06:43:41;;;;;;;16.20;7.28;;;;;;;;;;5089670;28;20087;-65
2022/05/17 06:46:07;;;;;;;13.25;7.78;;;;;;;;;;5086107;27;20032;-65
2022/05/17 06:48:34;;;;;;;14.10;6.22;;;;;;;;;;5089704;28;20047;-65
2022/05/17 06:51:04;;;;;;;14.75;6.50;;;;;;;;;;5096358;28;20047;-65
2022/05/17 06:53:31;;;;;;;15.55;6.82;;;;;;;;;;5091374;27;20056;-66
2022/05/17 06:55:57;;;;;;;17.25;8.35;;;;;;;;;;5091642;27;20083;-65
2022/05/17 06:58:24;;;;;;;12.63;7.53;;;;;;;;;;5089332;28;20039;-65
2022/05/17 07:00:50;;;;;;;13.15;7.22;;;;;;;;;;5096577;27;20405;-65
2022/05/17 07:03:16;;;;;;;21.60;7.65;;;;;;;;;;5090508;27;20040;-65
2022/05/17 07:05:42;;;;;;;15.65;6.50;;;;;;;;;;5087017;28;20039;-65
2022/05/17 07:08:09;;;;;;;14.35;6.93;;;;;;;;;;5085617;27;20044;-64
2022/05/17 07:13:19;;;;;;;20.65;6.68;;;;;;;;;;5102305;27;20035;-65
2022/05/17 07:15:47;;;;;;;24.73;7.88;;;;;;;;;;5090993;27;20048;-65
2022/05/17 07:18:17;;;;;;;17.80;7.38;;;;;;;;;;5098918;27;20039;-65
2022/05/17 07:20:43;;;;;;;16.30;7.50;;;;;;;;;;5084543;28;20101;-64
2022/05/17 07:23:10;;;;;;;13.45;6.15;;;;;;;;;;5090814;27;20561;-65
2022/05/17 07:25:36;;;;;;;12.18;6.13;;;;;;;;;;5087957;27;20036;-65
2022/05/17 07:28:03;;;;;;;18.60;6.82;;;;;;;;;;5098232;27;20071;-64
2022/05/17 07:30:29;;;;;;;15.25;6.43;;;;;;;;;;5087854;27;20513;-64
2022/05/17 07:32:55;;;;;;;12.68;5.53;;;;;;;;;;5093943;27;20138;-65
2022/05/17 07:35:21;;;;;;;17.45;5.65;;;;;;;;;;5088094;27;20085;-65
2022/05/17 07:37:48;;;;;;;19.05;6.40;;;;;;;;;;5084162;27;20052;-65
2022/05/17 07:40:14;;;;;;;9.75;6.03;;;;;;;;;;5086308;28;20047;-65
2022/05/17 07:42:40;;;;;;;19.08;5.85;;;;;;;;;;5083887;27;20040;-65
2022/05/17 07:45:08;;;;;;;13.45;5.95;;;;;;;;;;5084213;28;20046;-65
2022/05/17 07:47:34;;;;;;;11.55;5.55;;;;;;;;;;5086067;28;20569;-65
2022/05/17 07:50:00;;;;;;;19.67;6.40;;;;;;;;;;5085753;28;20413;-65
2022/05/17 07:52:28;;;;;;;11.68;5.10;;;;;;;;;;5088590;28;20443;-65
2022/05/17 07:54:54;;;;;;;9.57;5.15;;;;;;;;;;5100458;28;20886;-65
2022/05/17 07:57:22;;;;;;;11.25;4.80;;;;;;;;;;5086867;27;20036;-64
2022/05/17 07:59:48;;;;;;;14.05;7.05;;;;;;;;;;5087467;28;20489;-65
2022/05/17 08:02:14;;;;;;;9.70;5.13;;;;;;;;;;5086344;28;20050;-65
2022/05/17 08:04:41;;;;;;;10.27;5.13;;;;;;;;;;5087383;27;20044;-65
2022/05/17 08:07:08;;;;;;;14.77;5.47;;;;;;;;;;5085157;27;20053;-65
2022/05/17 08:09:35;;;;;;;17.27;5.70;;;;;;;;;;5096864;27;20048;-65
2022/05/17 08:12:01;;;;;;;14.15;4.95;;;;;;;;;;5086405;28;20114;-65
2022/05/17 08:14:28;;;;;;;14.88;5.97;;;;;;;;;;5086477;28;20040;-65
2022/05/17 08:16:54;;;;;;;13.25;6.28;;;;;;;;;;5085205;27;20047;-65
2022/05/17 08:19:20;;;;;;;8.57;5.00;;;;;;;;;;5086229;28;20186;-65
2022/05/17 08:21:46;;;;;;;10.13;5.10;;;;;;;;;;5089464;28;20122;-65
2022/05/17 08:24:12;;;;;;;10.52;5.05;;;;;;;;;;5086039;27;20036;-65
2022/05/17 08:29:23;;;;;;;7.82;4.93;;;;;;;;;;5086498;27;20462;-65
2022/05/17 08:34:34;;;;;;;18.48;5.80;;;;;;;;;;5086829;27;20048;-65
2022/05/17 08:37:00;;;;;;;14.82;5.10;;;;;;;;;;5086447;27;20036;-65
2022/05/17 08:39:28;;;;;;;13.90;5.32;;;;;;;;;;5097051;28;20050;-65
2022/05/17 08:41:57;;;;;;;11.80;5.10;;;;;;;;;;5088728;27;20489;-65
2022/05/17 08:44:29;;;;;;;12.82;5.22;;;;;;;;;;5088435;28;20117;-65
2022/05/17 08:46:55;;;;;;;14.73;5.13;;;;;;;;;;5091715;28;20048;-65
2022/05/17 08:49:26;;;;;;;18.52;5.97;;;;;;;;;;5085772;27;20444;-65
2022/05/17 08:51:54;;;;;;;14.25;5.25;;;;;;;;;;5086445;27;20386;-65
2022/05/17 08:54:24;;;;;;;10.48;4.32;;;;;;;;;;5097106;28;20032;-65
2022/05/17 08:56:54;;;;;;;12.20;5.65;;;;;;;;;;5084629;27;20044;-65
2022/05/17 08:59:23;;;;;;;11.32;4.45;;;;;;;;;;5090742;28;20040;-65
2022/05/17 09:02:00;;;;;;;17.48;4.03;;;;;;;;;;5087154;28;20118;-65
2022/05/17 09:04:50;;;;;;;12.05;3.25;;;;;;;;;;5085762;28;20085;-65
2022/05/17 09:07:19;;;;;;;10.15;3.75;;;;;;;;;;5088263;28;20146;-65
2022/05/17 09:10:02;;;;;;;6.70;3.38;;;;;;;;;;5086219;27;20043;-65
2022/05/17 09:12:35;;;;;;;7.72;3.65;;;;;;;;;;5091194;28;20051;-65
2022/05/17 09:15:01;;;;;;;9.07;4.05;;;;;;;;;;5090844;28;20493;-65
2022/05/17 09:17:28;;;;;;;7.03;3.17;;;;;;;;;;5085601;27;20044;-65
2022/05/17 09:19:55;;;;;;;7.68;3.55;;;;;;;;;;5085431;28;20401;-65
2022/05/17 09:22:22;;;;;;;9.25;3.75;;;;;;;;;;5083680;28;20148;-65
2022/05/17 09:24:54;;;;;;;10.15;3.97;;;;;;;;;;5095626;28;20132;-65
2022/05/17 09:27:34;;;;;;;12.90;3.85;;;;;;;;;;5091739;28;20427;-66
2022/05/17 09:30:23;;;;;;;8.32;3.30;;;;;;;;;;5084084;28;20357;-65
2022/05/17 09:32:59;;;;;;;9.20;3.25;;;;;;;;;;5085991;28;20044;-65
2022/05/17 09:35:26;;;;;;;6.25;3.38;;;;;;;;;;5085040;28;20051;-65
2022/05/17 09:37:54;;;;;;;5.97;2.88;;;;;;;;;;5084071;28;20044;-66
2022/05/17 09:40:25;;;;;;;12.63;3.97;;;;;;;;;;5099104;28;20477;-65
2022/05/17 09:42:54;;;;;;;11.90;4.10;;;;;;;;;;5088177;28;20055;-65
2022/05/17 09:45:21;;;;;;;12.07;3.83;;;;;;;;;;5092662;28;20513;-66
2022/05/17 09:47:59;;;;;;;11.32;3.25;;;;;;;;;;5085558;28;20044;-65
2022/05/17 09:53:15;;;;;;;11.63;3.05;;;;;;;;;;5084172;28;20063;-66
2022/05/17 09:55:47;;;;;;;7.97;2.50;;;;;;;;;;5095410;28;20047;-66
2022/05/17 09:58:28;;;;;;;8.00;2.53;;;;;;;;;;5085295;28;20595;-65
2022/05/17 10:00:54;;;;;;;12.65;3.83;;;;;;;;;;5085438;28;20052;-66
2022/05/17 10:03:27;;;;;;;9.05;2.38;;;;;;;;;;5066608;28;20050;-64
2022/05/17 10:06:00;;;;;;;5.85;2.58;;;;;;;;;;5084393;28;20051;-64
2022/05/17 10:08:45;;;;;;;5.28;2.35;;;;;;;;;;5087121;28;20052;-63
2022/05/17 10:11:25;;;;;;;5.43;2.10;;;;;;;;;;5083295;28;20047;-65
2022/05/17 10:13:51;;;;;;;3.47;1.90;;;;;;;;;;5090113;28;20039;-65
2022/05/17 10:16:22;;;;;;;7.40;2.60;;;;;;;;;;5085065;28;20547;-65
2022/05/17 10:18:58;;;;;;;9.35;2.50;;;;;;;;;;5085803;28;20044;-66
2022/05/17 10:21:30;;;;;;;7.43;2.55;;;;;;;;;;5094887;28;20418;-65
2022/05/17 10:24:00;;;;;;;8.25;2.75;;;;;;;;;;5092647;27;20040;-66
2022/05/17 10:26:33;;;;;;;5.18;2.08;;;;;;;;;;5089626;27;20075;-65
2022/05/17 10:28:59;;;;;;;9.02;2.50;;;;;;;;;;5093431;27;20059;-65
2022/05/17 10:31:40;;;;;;;6.05;2.50;;;;;;;;;;5088239;27;20051;-66
2022/05/17 10:34:25;;;;;;;6.80;2.50;;;;;;;;;;5091381;27;20036;-65
2022/05/17 10:36:55;;;;;;;8.68;2.25;;;;;;;;;;5091976;28;20047;-66
2022/05/17 10:39:27;;;;;;;3.78;1.70;;;;;;;;;;5094137;28;20085;-66
2022/05/17 10:41:54;;;;;;;;;;;;;;;;;;5092762;27;20599;-65
2022/05/17 10:44:20;;;;;;;3.75;1.60;;;;;;;;;;5090060;28;19916;-66
2022/05/17 10:46:51;;;;;;;4.95;2.58;;;;;;;;;;5089155;28;20043;-65
2022/05/17 10:49:26;;;;;;;7.35;2.40;;;;;;;;;;5095024;27;20055;-66
2022/05/17 10:51:56;;;;;;;5.28;2.25;;;;;;;;;;5088984;27;20448;-66
2022/05/17 10:54:35;;;;;;;12.02;2.55;;;;;;;;;;5088266;27;20067;-66
2022/05/17 10:57:20;;;;;;;7.18;2.75;;;;;;;;;;5095512;27;20517;-66
2022/05/17 10:59:55;;;;;;;5.78;2.30;;;;;;;;;;5093655;28;20447;-66
2022/05/17 11:02:36;;;;;;;14.13;2.90;;;;;;;;;;5101864;28;20400;-65
2022/05/17 11:05:02;;;;;;;5.47;2.13;;;;;;;;;;5093017;28;20050;-65
2022/05/17 11:07:35;;;;;;;8.77;2.50;;;;;;;;;;5089106;27;20040;-66
2022/05/17 11:10:01;;;;;;;4.93;2.35;;;;;;;;;;5088209;28;20040;-66
2022/05/17 11:12:30;;;;;;;5.22;2.42;;;;;;;;;;5087544;28;20040;-65
2022/05/17 11:15:02;;;;;;;8.05;2.38;;;;;;;;;;5092353;27;20464;-66
2022/05/17 11:17:31;;;;;;;7.38;2.08;;;;;;;;;;5088096;27;20086;-66
2022/05/17 11:20:04;;;;;;;8.95;2.03;;;;;;;;;;5102436;28;20040;-66
2022/05/17 11:22:31;;;;;;;3.67;2.03;;;;;;;;;;5085783;27;20051;-66
2022/05/17 11:25:02;;;;;;;5.57;2.03;;;;;;;;;;5093496;28;20074;-65
2022/05/17 11:27:29;;;;;;;7.10;2.08;;;;;;;;;;5102160;28;20484;-65
2022/05/17 11:30:08;;;;;;;5.38;2.15;;;;;;;;;;5087404;28;20095;-65
2022/05/17 11:32:36;;;;;;;9.15;2.70;;;;;;;;;;5092704;28;20047;-65
2022/05/17 11:35:22;;;;;;;7.28;2.60;;;;;;;;;;5090256;28;20410;-65
2022/05/17 11:37:50;;;;;;;9.23;2.50;;;;;;;;;;5087216;27;20052;-66
2022/05/17 11:40:36;;;;;;;6.00;1.75;;;;;;;;;;5091792;28;20130;-65
2022/05/17 11:45:53;;;;;;;3.65;1.85;;;;;;;;;;5086782;28;20501;-65
2022/05/17 11:48:39;;;;;;;4.88;1.90;;;;;;;;;;5093402;27;20127;-65
2022/05/17 11:51:05;;;;;;;5.40;1.50;;;;;;;;;;5085938;28;20048;-65
2022/05/17 11:53:34;;;;;;;3.92;1.88;;;;;;;;;;5099834;27;20077;-65
2022/05/17 11:56:18;;;;;;;4.47;1.95;;;;;;;;;;5094664;27;20054;-65
2022/05/17 11:58:46;;;;;;;6.32;2.45;;;;;;;;;;5087460;27;20075;-65
2022/05/17 12:01:35;;;;;;;14.68;2.15;;;;;;;;;;5087445;28;20051;-65
2022/05/17 12:04:28;;;;;;;4.75;2.08;;;;;;;;;;5093652;28;20032;-65
2022/05/17 12:06:54;;;;;;;7.28;1.98;;;;;;;;;;5087481;27;20098;-65
2022/05/17 12:09:20;;;;;;;5.35;2.08;;;;;;;;;;5086735;27;20094;-65
2022/05/17 12:11:46;;;;;;;4.45;2.10;;;;;;;;;;5088059;28;20051;-65
2022/05/17 12:14:24;;;;;;;5.97;2.13;;;;;;;;;;5086682;28;20051;-66
2022/05/17 12:16:55;;;;;;;4.68;1.75;;;;;;;;;;5087332;28;20581;-65
2022/05/17 12:19:32;;;;;;;6.78;2.08;;;;;;;;;;5097352;27;20044;-65
2022/05/17 12:22:06;;;;;;;6.00;2.45;;;;;;;;;;5087710;27;20632;-65
2022/05/17 12:24:51;;;;;;;8.88;2.05;;;;;;;;;;5090233;28;20043;-66
2022/05/17 12:27:30;;;;;;;4.32;2.25;;;;;;;;;;5086115;28;20051;-65
2022/05/17 12:32:47;;;;;;;5.70;2.92;;;;;;;;;;5085754;28;20069;-65
2022/05/17 12:35:14;;;;;;;6.10;2.15;;;;;;;;;;5085455;28;20127;-65
2022/05/17 12:37:42;;;;;;;4.53;2.03;;;;;;;;;;5089122;28;20430;-66
2022/05/17 12:43:03;;;;;;;7.55;3.13;;;;;;;;;;5087795;28;20135;-65
2022/05/17 12:45:34;;;;;;;11.00;3.83;;;;;;;;;;5090486;27;20056;-65
2022/05/17 12:48:01;;;;;;;9.05;2.75;;;;;;;;;;5086139;27;20042;-65
2022/05/17 12:50:46;;;;;;;8.30;2.08;;;;;;;;;;5097365;28;20374;-66
2022/05/17 12:53:32;;;;;;;5.70;2.05;;;;;;;;;;5084586;28;20449;-65
2022/05/17 12:56:22;;;;;;;7.05;3.00;;;;;;;;;;5082176;28;20055;-65
2022/05/17 12:58:52;;;;;;;4.68;1.70;;;;;;;;;;5088544;28;20605;-65
2022/05/17 13:01:26;;;;;;;5.28;2.13;;;;;;;;;;5084374;27;20043;-65
2022/05/17 13:03:56;;;;;;;6.40;2.10;;;;;;;;;;5085219;28;20389;-65
2022/05/17 13:06:22;;;;;;;6.38;2.53;;;;;;;;;;5094828;28;20093;-65
2022/05/17 13:08:48;;;;;;;9.65;3.60;;;;;;;;;;5083991;27;20050;-65
2022/05/17 13:11:25;;;;;;;7.72;2.55;;;;;;;;;;5087112;28;20129;-65
2022/05/17 13:13:58;;;;;;;13.23;2.80;;;;;;;;;;5086118;28;20067;-65
2022/05/17 13:16:27;;;;;;;5.38;2.17;;;;;;;;;;5091429;28;20505;-65
2022/05/17 13:18:57;;;;;;;4.95;2.17;;;;;;;;;;5091025;28;20086;-65
2022/05/17 13:21:23;;;;;;;7.03;2.85;;;;;;;;;;5094588;28;20043;-65
2022/05/17 13:23:51;;;;;;;6.82;2.35;;;;;;;;;;5084315;28;20051;-65
2022/05/17 13:26:24;;;;;;;11.88;3.47;;;;;;;;;;5092248;28;20039;-65
2022/05/17 13:28:50;;;;;;;6.97;2.70;;;;;;;;;;5089166;28;20040;-66
2022/05/17 13:31:23;;;;;;;4.80;2.25;;;;;;;;;;5084780;28;20450;-65
2022/05/17 13:33:58;;;;;;;5.38;2.53;;;;;;;;;;5085314;28;20048;-65
2022/05/17 13:36:38;;;;;;;8.15;2.45;;;;;;;;;;5084003;28;20344;-65
2022/05/17 13:39:16;;;;;;;4.93;2.45;;;;;;;;;;5087119;28;20512;-65
2022/05/17 13:41:42;;;;;;;5.65;3.72;;;;;;;;;;5085160;28;20246;-65
2022/05/17 13:44:09;;;;;;;6.18;2.33;;;;;;;;;;5083989;28;20173;-66
2022/05/17 13:46:37;;;;;;;8.98;3.33;;;;;;;;;;5087691;28;20067;-65
2022/05/17 13:49:12;;;;;;;8.98;2.35;;;;;;;;;;5084857;28;20036;-65
2022/05/17 13:51:51;;;;;;;9.02;2.70;;;;;;;;;;5084364;28;20158;-65
2022/05/17 13:54:17;;;;;;;6.50;2.42;;;;;;;;;;5085012;28;20059;-65
2022/05/17 13:56:47;;;;;;;7.28;2.42;;;;;;;;;;5087866;28;20036;-65
2022/05/17 13:59:15;;;;;;;4.63;2.20;;;;;;;;;;5090211;27;20035;-65
2022/05/17 14:01:42;;;;;;;6.25;2.05;;;;;;;;;;5090691;28;20075;-65
2022/05/17 14:04:13;;;;;;;7.93;2.20;;;;;;;;;;5105379;28;20071;-65
2022/05/17 14:06:43;;;;;;;9.05;3.45;;;;;;;;;;5088858;27;20077;-65
2022/05/17 14:11:58;;;;;;;5.90;2.70;;;;;;;;;;5090708;28;20153;-65
2022/05/17 14:14:25;;;;;;;9.05;3.05;;;;;;;;;;5090948;27;20534;-65
2022/05/17 14:16:54;;;;;;;6.47;2.20;;;;;;;;;;5098714;28;20522;-65
2022/05/17 14:19:21;;;;;;;7.43;2.58;;;;;;;;;;5099914;27;20368;-65
2022/05/17 14:21:51;;;;;;;6.07;2.92;;;;;;;;;;5091846;28;20524;-65
2022/05/17 14:24:18;;;;;;;6.35;2.65;;;;;;;;;;5089468;28;20079;-64
2022/05/17 14:26:44;;;;;;;5.28;2.30;;;;;;;;;;5089097;28;20115;-64
2022/05/17 14:29:11;;;;;;;5.22;2.60;;;;;;;;;;5087169;28;20056;-63
2022/05/17 14:31:43;;;;;;;11.35;2.00;;;;;;;;;;5092193;27;20531;-65
2022/05/17 14:34:11;;;;;;;3.30;2.08;;;;;;;;;;5090244;27;20040;-65
2022/05/17 14:36:38;;;;;;;8.48;2.53;;;;;;;;;;5087228;28;20036;-65
2022/05/17 14:39:04;;;;;;;3.60;1.80;;;;;;;;;;5097312;28;20412;-65
2022/05/17 14:41:30;;;;;;;9.32;2.83;;;;;;;;;;5077864;28;20067;-65
2022/05/17 14:43:57;;;;;;;5.57;2.17;;;;;;;;;;5088712;27;20062;-65
2022/05/17 14:46:23;;;;;;;7.25;2.15;;;;;;;;;;5087232;27;20056;-65
2022/05/17 14:48:50;;;;;;;4.47;2.13;;;;;;;;;;5097432;28;20254;-65
2022/05/17 14:51:18;;;;;;;6.57;1.83;;;;;;;;;;5086914;28;20036;-65
2022/05/17 14:53:44;;;;;;;4.75;2.05;;;;;;;;;;5089825;27;20087;-65
2022/05/17 14:56:10;;;;;;;6.05;2.13;;;;;;;;;;5088903;28;20345;-65
2022/05/17 14:58:36;;;;;;;4.43;2.13;;;;;;;;;;5088718;28;20039;-65
2022/05/17 15:01:04;;;;;;;10.25;2.22;;;;;;;;;;5094831;27;20080;-65
2022/05/17 15:03:35;;;;;;;6.13;2.10;;;;;;;;;;5091259;27;20044;-65
2022/05/17 15:06:01;;;;;;;8.40;2.28;;;;;;;;;;5087740;28;20036;-65
2022/05/17 15:08:28;;;;;;;6.28;2.13;;;;;;;;;;5086388;27;20485;-65
2022/05/17 15:10:54;;;;;;;12.25;2.55;;;;;;;;;;5092247;28;20036;-65
2022/05/17 15:13:20;;;;;;;5.80;2.35;;;;;;;;;;5088673;27;20088;-65